createdAt,value
2022-12-13T00:02:14.674Z,25.27
2022-12-13T00:04:44.586Z,25.85
2022-12-13T00:07:14.427Z,18.92
2022-12-13T00:09:44.718Z,18.50
2022-12-13T00:12:14.593Z,17.88
2022-12-13T00:14:44.438Z,18.75
2022-12-13T00:17:16.864Z,19.35
2022-12-13T00:19:46.796Z,18.85
2022-12-13T00:22:17.087Z,18.63
2022-12-13T00:24:47.044Z,19.70
2022-12-13T00:27:16.951Z,20.48
2022-12-13T00:29:46.830Z,19.35
2022-12-13T00:32:19.376Z,23.40
2022-12-13T00:34:49.310Z,21.58
2022-12-13T00:37:19.268Z,19.17
2022-12-13T00:39:49.122Z,19.05
2022-12-13T00:42:19.002Z,19.92
2022-12-13T00:44:48.837Z,23.40
2022-12-13T00:47:22.412Z,21.60
2022-12-13T00:49:52.287Z,21.40
2022-12-13T00:52:22.154Z,19.75
2022-12-13T00:54:52.002Z,20.55
2022-12-13T00:57:21.883Z,20.00
2022-12-13T00:59:51.738Z,20.10
2022-12-13T01:02:24.246Z,26.08
2022-12-13T01:04:54.372Z,22.02
2022-12-13T01:07:24.339Z,21.98
2022-12-13T01:09:54.229Z,22.67
2022-12-13T01:12:24.194Z,21.58
2022-12-13T01:14:56.207Z,23.63
2022-12-13T01:17:30.766Z,20.80
2022-12-13T01:20:00.617Z,22.27
2022-12-13T01:22:30.522Z,24.27
2022-12-13T01:25:00.355Z,20.42
2022-12-13T01:27:30.239Z,25.92
2022-12-13T01:30:00.127Z,22.27
2022-12-13T01:32:32.590Z,23.25
2022-12-13T01:35:02.461Z,26.25
2022-12-13T01:37:32.306Z,24.58
2022-12-13T01:40:15.919Z,25.15
2022-12-13T01:42:46.602Z,24.02
2022-12-13T01:45:29.524Z,23.02
2022-12-13T01:48:05.166Z,23.13
2022-12-13T01:50:39.634Z,21.50
2022-12-13T01:53:12.967Z,22.20
2022-12-13T01:55:43.517Z,21.23
2022-12-13T01:58:14.711Z,21.38
2022-12-13T02:00:45.513Z,24.95
2022-12-13T02:03:21.487Z,25.13
2022-12-13T02:06:00.413Z,23.30
2022-12-13T02:08:31.448Z,19.67
2022-12-13T02:11:07.506Z,21.77
2022-12-13T02:13:37.371Z,19.77
2022-12-13T02:16:22.234Z,18.40
2022-12-13T02:19:26.439Z,18.42
2022-12-13T02:22:09.369Z,19.90
2022-12-13T02:25:07.292Z,17.30
2022-12-13T02:28:31.581Z,21.13
2022-12-13T02:31:05.103Z,20.30
2022-12-13T02:33:47.893Z,19.13
2022-12-13T02:36:26.213Z,19.45
2022-12-13T02:39:01.425Z,17.88
2022-12-13T02:41:40.152Z,16.35
2022-12-13T02:44:22.756Z,18.00
2022-12-13T02:47:02.054Z,18.48
2022-12-13T02:49:36.225Z,18.42
2022-12-13T02:52:09.968Z,18.88
2022-12-13T02:54:42.718Z,16.98
2022-12-13T02:57:35.576Z,21.80
2022-12-13T03:00:10.833Z,17.67
2022-12-13T03:02:58.074Z,18.63
2022-12-13T03:05:51.283Z,17.02
2022-12-13T03:08:28.622Z,17.55
2022-12-13T03:11:09.090Z,45.20
2022-12-13T03:13:49.548Z,70.05
2022-12-13T03:16:36.538Z,97.90
2022-12-13T03:19:12.237Z,114.00
2022-12-13T03:21:47.668Z,66.35
2022-12-13T03:24:21.050Z,85.55
2022-12-13T03:26:52.935Z,29.02
2022-12-13T03:29:24.161Z,94.25
2022-12-13T03:31:54.918Z,30.80
2022-12-13T03:34:27.347Z,32.75
2022-12-13T03:37:15.149Z,46.22
2022-12-13T03:39:45.166Z,44.60
2022-12-13T03:42:15.116Z,48.65
2022-12-13T03:44:45.034Z,36.85
2022-12-13T03:47:15.428Z,43.40
2022-12-13T03:49:54.283Z,37.85
2022-12-13T03:52:24.363Z,24.45
2022-12-13T03:54:54.224Z,42.50
2022-12-13T03:57:24.094Z,32.63
2022-12-13T03:59:53.931Z,23.65
2022-12-13T04:02:30.978Z,27.00
2022-12-13T04:05:04.042Z,23.83
2022-12-13T04:07:34.329Z,25.88
2022-12-13T04:10:25.260Z,22.17
2022-12-13T04:13:07.178Z,21.23
2022-12-13T04:15:37.166Z,28.00
2022-12-13T04:18:07.821Z,25.00
2022-12-13T04:20:40.468Z,25.20
2022-12-13T04:23:10.727Z,21.83
2022-12-13T04:25:40.916Z,24.05
2022-12-13T04:28:11.459Z,26.58
2022-12-13T04:30:41.353Z,23.15
2022-12-13T04:33:11.207Z,24.30
2022-12-13T04:35:43.632Z,26.20
2022-12-13T04:38:13.617Z,21.52
2022-12-13T04:40:43.431Z,27.23
2022-12-13T04:43:13.316Z,27.05
2022-12-13T04:45:43.544Z,21.85
2022-12-13T04:48:13.842Z,23.75
2022-12-13T04:51:04.406Z,19.88
2022-12-13T04:53:34.429Z,24.30
2022-12-13T04:56:06.896Z,24.08
2022-12-13T04:58:36.867Z,20.02
2022-12-13T05:01:11.218Z,23.60
2022-12-13T05:03:41.993Z,26.05
2022-12-13T05:06:26.904Z,22.90
2022-12-13T05:09:00.890Z,22.55
2022-12-13T05:11:35.576Z,32.83
2022-12-13T05:14:06.459Z,25.90
2022-12-13T05:16:39.089Z,25.95
2022-12-13T05:19:09.039Z,24.23
2022-12-13T05:21:41.470Z,25.98
2022-12-13T05:24:11.606Z,25.77
2022-12-13T05:26:41.466Z,25.65
2022-12-13T05:29:11.437Z,23.05
2022-12-13T05:31:41.305Z,25.20
2022-12-13T05:34:11.318Z,22.42
2022-12-13T05:36:43.758Z,24.23
2022-12-13T05:39:29.070Z,27.95
2022-12-13T05:42:02.873Z,27.42
2022-12-13T05:44:34.476Z,25.27
2022-12-13T05:47:04.589Z,25.23
2022-12-13T05:49:34.810Z,32.03
2022-12-13T05:52:07.323Z,24.10
2022-12-13T05:54:37.170Z,28.58
2022-12-13T05:57:12.975Z,28.08
2022-12-13T05:59:42.831Z,29.17
2022-12-13T06:02:16.862Z,25.55
2022-12-13T06:04:51.190Z,28.92
2022-12-13T06:07:23.674Z,25.30
2022-12-13T06:09:53.545Z,26.05
2022-12-13T06:12:43.266Z,26.05
2022-12-13T06:15:22.465Z,24.50
2022-12-13T06:17:53.024Z,26.27
2022-12-13T06:20:24.771Z,24.77
2022-12-13T06:22:57.503Z,24.27
2022-12-13T06:25:30.741Z,24.85
2022-12-13T06:28:02.234Z,23.90
2022-12-13T06:30:32.349Z,22.88
2022-12-13T06:33:02.263Z,25.83
2022-12-13T06:35:35.264Z,27.35
2022-12-13T06:38:12.032Z,25.27
2022-12-13T06:40:42.532Z,30.95
2022-12-13T06:43:12.574Z,22.73
2022-12-13T06:45:43.222Z,24.05
2022-12-13T06:48:16.307Z,25.17
2022-12-13T06:50:50.079Z,24.33
2022-12-13T06:53:24.900Z,26.02
2022-12-13T06:55:54.727Z,22.65
2022-12-13T06:58:24.966Z,27.00
2022-12-13T07:01:05.005Z,24.67
2022-12-13T07:03:35.845Z,27.25
2022-12-13T07:06:10.893Z,23.90
2022-12-13T07:08:43.952Z,26.45
2022-12-13T07:11:18.095Z,25.50
2022-12-13T07:13:48.242Z,23.50
2022-12-13T07:16:18.414Z,25.27
2022-12-13T07:18:48.355Z,25.65
2022-12-13T07:21:21.983Z,20.20
2022-12-13T07:23:55.531Z,29.35
2022-12-13T07:26:26.391Z,24.92
2022-12-13T07:28:56.219Z,28.60
2022-12-13T07:31:33.311Z,27.08
2022-12-13T07:34:03.579Z,23.63
2022-12-13T07:36:33.478Z,24.65
2022-12-13T07:39:05.982Z,24.80
2022-12-13T07:41:35.834Z,25.80
2022-12-13T07:44:05.751Z,24.35
2022-12-13T07:46:35.753Z,26.10
2022-12-13T07:49:06.344Z,27.15
2022-12-13T07:51:37.002Z,26.98
2022-12-13T07:54:11.079Z,27.15
2022-12-13T07:56:40.951Z,27.25
2022-12-13T07:59:11.779Z,26.17
2022-12-13T08:01:41.715Z,28.83
2022-12-13T08:04:11.947Z,28.05
2022-12-13T08:06:42.197Z,24.30
2022-12-13T08:09:14.607Z,33.35
2022-12-13T08:11:44.438Z,25.67
2022-12-13T08:14:14.550Z,27.58
2022-12-13T08:16:44.444Z,34.97
2022-12-13T08:19:14.549Z,28.30
2022-12-13T08:21:54.490Z,43.78
2022-12-13T08:24:28.421Z,36.78
2022-12-13T08:27:01.381Z,32.40
2022-12-13T08:29:33.639Z,32.75
2022-12-13T08:32:06.411Z,27.98
2022-12-13T08:34:36.308Z,31.33
2022-12-13T08:37:06.582Z,30.50
2022-12-13T08:39:40.857Z,29.55
2022-12-13T08:42:15.920Z,25.35
2022-12-13T08:44:49.264Z,33.67
2022-12-13T08:47:23.128Z,28.17
2022-12-13T08:50:01.481Z,30.92
2022-12-13T08:52:39.709Z,33.38
2022-12-13T08:55:14.009Z,28.02
2022-12-13T08:57:45.598Z,30.88
2022-12-13T09:00:18.510Z,29.00
2022-12-13T09:02:48.644Z,29.30
2022-12-13T09:05:33.481Z,27.95
2022-12-13T09:08:23.992Z,26.08
2022-12-13T09:11:10.540Z,30.65
2022-12-13T09:13:51.295Z,25.63
2022-12-13T09:16:24.816Z,30.52
2022-12-13T09:18:56.079Z,31.13
2022-12-13T09:21:31.928Z,30.92
2022-12-13T09:24:02.820Z,33.58
2022-12-13T09:26:38.406Z,30.30
2022-12-13T09:29:11.345Z,31.27
2022-12-13T09:31:41.659Z,32.97
2022-12-13T09:34:11.815Z,29.23
2022-12-13T09:36:42.275Z,31.83
2022-12-13T09:39:12.260Z,30.20
2022-12-13T09:41:49.840Z,31.92
2022-12-13T09:44:30.482Z,28.90
2022-12-13T09:47:13.399Z,33.50
2022-12-13T09:49:52.755Z,29.52
2022-12-13T09:52:33.419Z,28.00
2022-12-13T09:55:07.925Z,32.10
2022-12-13T09:57:43.242Z,36.40
2022-12-13T10:00:20.717Z,30.55
2022-12-13T10:02:53.880Z,34.95
2022-12-13T10:05:34.540Z,33.38
2022-12-13T10:08:11.676Z,34.20
2022-12-13T10:10:41.567Z,30.70
2022-12-13T10:13:21.264Z,32.55
2022-12-13T10:15:57.594Z,32.22
2022-12-13T10:18:36.498Z,34.13
2022-12-13T10:21:10.987Z,34.45
2022-12-13T10:24:15.058Z,29.75
2022-12-13T10:26:39.447Z,29.60
2022-12-13T10:29:12.303Z,30.52
2022-12-13T10:31:45.346Z,35.13
2022-12-13T10:34:25.221Z,29.38
2022-12-13T10:36:59.588Z,28.60
2022-12-13T10:42:22.773Z,24.95
2022-12-13T10:45:22.982Z,32.00
2022-12-13T10:47:56.094Z,31.63
2022-12-13T10:50:31.959Z,29.33
2022-12-13T10:53:03.463Z,26.35
2022-12-13T10:55:36.187Z,31.45
2022-12-13T10:58:09.885Z,28.35
2022-12-13T11:00:46.516Z,26.38
2022-12-13T11:03:33.615Z,33.47
2022-12-13T11:06:08.912Z,27.10
2022-12-13T11:08:39.260Z,27.00
2022-12-13T11:11:12.503Z,31.38
2022-12-13T11:13:48.171Z,28.88
2022-12-13T11:16:30.590Z,28.75
2022-12-13T11:19:04.829Z,30.38
2022-12-13T11:21:37.549Z,27.52
2022-12-13T11:24:10.908Z,29.10
2022-12-13T11:26:48.777Z,28.33
2022-12-13T11:29:48.947Z,28.90
2022-12-13T11:32:35.963Z,30.85
2022-12-13T11:35:17.508Z,34.97
2022-12-13T11:37:57.357Z,30.80
2022-12-13T11:40:31.940Z,33.35
2022-12-13T11:43:10.159Z,29.55
2022-12-13T11:45:46.663Z,32.65
2022-12-13T11:48:27.209Z,29.85
2022-12-13T11:50:59.340Z,30.88
2022-12-13T11:53:34.046Z,35.45
2022-12-13T11:59:05.931Z,29.83
2022-12-13T12:01:45.507Z,30.15
2022-12-13T12:04:26.547Z,33.85
2022-12-13T12:07:18.144Z,29.30
2022-12-13T12:09:56.519Z,29.80
2022-12-13T12:12:34.191Z,27.58
2022-12-13T12:15:15.665Z,32.47
2022-12-13T12:17:46.365Z,31.02
2022-12-13T12:20:24.946Z,28.40
2022-12-13T12:23:06.817Z,26.88
2022-12-13T12:25:49.041Z,30.58
2022-12-13T12:28:31.280Z,26.88
2022-12-13T12:31:11.840Z,28.15
2022-12-13T12:33:53.461Z,29.58
2022-12-13T12:36:52.177Z,31.50
2022-12-13T12:39:37.698Z,32.25
2022-12-13T12:42:56.560Z,31.77
2022-12-13T12:45:56.799Z,29.63
2022-12-13T12:48:57.037Z,28.73
2022-12-13T12:51:42.379Z,34.15
2022-12-13T12:54:32.709Z,30.65
2022-12-13T12:57:14.827Z,30.98
2022-12-13T13:00:02.012Z,28.58
2022-12-13T13:02:41.723Z,27.40
2022-12-13T13:05:20.069Z,25.42
2022-12-13T13:07:59.758Z,31.20
2022-12-13T13:10:30.383Z,52.78
2022-12-13T13:13:11.773Z,30.35
2022-12-13T13:15:59.065Z,27.92
2022-12-13T13:18:50.985Z,28.45
2022-12-13T13:21:49.921Z,30.13
2022-12-13T13:24:27.809Z,29.23
2022-12-13T13:27:00.353Z,25.48
2022-12-13T13:29:43.931Z,26.15
2022-12-13T13:32:31.838Z,27.33
2022-12-13T13:35:50.637Z,28.67
2022-12-13T13:38:52.312Z,30.10
2022-12-13T13:42:10.374Z,29.70
2022-12-13T13:45:21.067Z,27.42
2022-12-13T13:48:14.901Z,29.10
2022-12-13T13:51:29.069Z,27.60
2022-12-13T13:54:31.035Z,26.58
2022-12-13T14:01:24.329Z,30.40
2022-12-13T14:04:48.097Z,31.92
2022-12-13T14:08:12.203Z,30.27
2022-12-13T14:11:03.598Z,37.17
2022-12-13T14:14:21.847Z,34.25
2022-12-13T14:17:32.646Z,35.50
2022-12-13T14:20:46.902Z,29.77
2022-12-13T14:23:34.087Z,32.22
2022-12-13T14:26:39.888Z,29.20
2022-12-13T14:31:50.406Z,25.83
2022-12-13T14:34:27.143Z,32.22
2022-12-13T14:37:03.207Z,27.88
2022-12-13T14:39:35.020Z,29.70
2022-12-13T14:42:25.121Z,32.95
2022-12-13T14:44:58.265Z,32.88
2022-12-13T14:47:28.426Z,30.15
2022-12-13T14:49:58.570Z,35.60
2022-12-13T14:52:32.146Z,29.60
2022-12-13T14:55:04.696Z,30.65
2022-12-13T14:57:37.691Z,31.30
2022-12-13T15:00:31.668Z,28.30
2022-12-13T15:03:04.119Z,26.05
2022-12-13T15:05:38.774Z,29.88
2022-12-13T15:08:11.881Z,28.17
2022-12-13T15:10:48.104Z,29.88
2022-12-13T15:13:29.738Z,31.90
2022-12-13T15:16:10.735Z,26.80
2022-12-13T15:18:41.385Z,26.90
2022-12-13T15:21:25.186Z,32.05
2022-12-13T15:23:56.563Z,27.00
2022-12-13T15:26:30.124Z,29.17
2022-12-13T15:29:09.854Z,28.85
2022-12-13T15:31:43.286Z,25.55
2022-12-13T15:34:35.411Z,32.05
2022-12-13T15:37:08.323Z,30.83
2022-12-13T15:40:03.621Z,32.45
2022-12-13T15:42:37.073Z,27.00
2022-12-13T15:45:10.817Z,29.48
2022-12-13T15:47:48.711Z,29.85
2022-12-13T15:50:37.630Z,31.63
2022-12-13T15:53:23.314Z,26.77
2022-12-13T15:55:54.286Z,33.67
2022-12-13T15:58:37.157Z,30.73
2022-12-13T16:01:08.096Z,28.65
2022-12-13T16:03:46.979Z,29.75
2022-12-13T16:06:22.136Z,36.45
2022-12-13T16:08:54.662Z,32.20
2022-12-13T16:11:34.131Z,35.10
2022-12-13T16:14:37.996Z,29.40
2022-12-13T16:17:16.672Z,36.53
2022-12-13T16:19:49.357Z,32.88
2022-12-13T16:22:21.806Z,33.25
2022-12-13T16:24:52.185Z,31.30
2022-12-13T16:27:22.077Z,34.85
2022-12-13T16:29:51.958Z,30.88
2022-12-13T16:32:22.024Z,34.20
2022-12-13T16:34:54.517Z,34.72
2022-12-13T16:37:27.549Z,41.47
2022-12-13T16:39:59.522Z,36.42
2022-12-13T16:42:30.753Z,39.10
2022-12-13T16:45:40.199Z,39.75
2022-12-13T16:47:51.056Z,42.55
2022-12-13T16:50:24.246Z,40.90
2022-12-13T16:52:54.138Z,49.53
2022-12-13T16:55:24.144Z,45.63
2022-12-13T16:58:01.752Z,44.85
2022-12-13T17:00:32.875Z,40.13
2022-12-13T17:03:03.530Z,42.65
2022-12-13T17:05:38.625Z,41.22
2022-12-13T17:08:08.612Z,40.70
2022-12-13T17:10:39.643Z,38.92
2022-12-13T17:13:09.665Z,37.13
2022-12-13T17:15:39.996Z,36.28
2022-12-13T17:18:10.184Z,32.58
2022-12-13T17:20:42.592Z,33.15
2022-12-13T17:23:17.829Z,33.60
2022-12-13T17:25:48.038Z,36.45
2022-12-13T17:28:28.747Z,39.53
2022-12-13T17:31:08.933Z,46.33
2022-12-13T17:33:39.065Z,38.33
2022-12-13T17:36:14.246Z,43.10
2022-12-13T17:38:46.371Z,39.20
2022-12-13T17:41:18.196Z,33.40
2022-12-13T17:43:48.468Z,34.17
2022-12-13T17:46:20.674Z,36.15
2022-12-13T17:48:50.581Z,29.90
2022-12-13T17:51:23.033Z,30.58
2022-12-13T17:53:52.877Z,30.63
2022-12-13T17:56:23.991Z,34.75
2022-12-13T17:58:53.831Z,36.03
2022-12-13T18:01:26.644Z,37.53
2022-12-13T18:03:59.490Z,36.88
2022-12-13T18:06:32.018Z,38.35
2022-12-13T18:09:02.393Z,42.15
2022-12-13T18:11:34.029Z,35.33
2022-12-13T18:14:05.306Z,38.97
2022-12-13T18:16:38.345Z,35.95
2022-12-13T18:19:10.753Z,33.20
2022-12-13T18:21:43.765Z,43.67
2022-12-13T18:24:14.961Z,41.80
2022-12-13T18:26:44.822Z,37.78
2022-12-13T18:29:14.654Z,45.75
2022-12-13T18:31:44.729Z,33.63
2022-12-13T18:34:15.085Z,29.45
2022-12-13T18:36:47.517Z,36.22
2022-12-13T18:39:17.412Z,33.53
2022-12-13T18:41:47.376Z,34.85
2022-12-13T18:44:17.222Z,36.30
2022-12-13T18:46:47.678Z,38.63
2022-12-13T18:49:17.787Z,41.58
2022-12-13T18:51:50.281Z,56.38
2022-12-13T18:54:20.168Z,65.05
2022-12-13T18:56:50.037Z,58.63
2022-12-13T18:59:19.894Z,61.97
2022-12-13T19:01:49.775Z,56.47
2022-12-13T19:04:19.602Z,39.50
2022-12-13T19:06:52.596Z,40.20
2022-12-13T19:09:22.445Z,37.13
2022-12-13T19:11:52.416Z,34.88
2022-12-13T19:14:26.899Z,32.60
2022-12-13T19:16:57.440Z,34.50
2022-12-13T19:19:27.283Z,30.83
2022-12-13T19:21:59.718Z,35.45
2022-12-13T19:24:30.002Z,34.90
2022-12-13T19:26:59.827Z,38.33
2022-12-13T19:29:29.700Z,34.15
2022-12-13T19:32:00.693Z,36.20
2022-12-13T19:34:30.625Z,43.17
2022-12-13T19:37:06.300Z,37.10
2022-12-13T19:39:37.431Z,38.83
2022-12-13T19:42:07.506Z,37.88
2022-12-13T19:44:37.347Z,34.15
2022-12-13T19:47:07.325Z,34.85
2022-12-13T19:49:37.194Z,32.60
2022-12-13T19:52:09.679Z,36.78
2022-12-13T19:54:39.554Z,31.70
2022-12-13T19:57:09.398Z,34.35
2022-12-13T19:59:39.298Z,33.50
2022-12-13T20:02:09.631Z,31.55
2022-12-13T20:04:39.475Z,35.90
2022-12-13T20:07:11.918Z,35.90
2022-12-13T20:09:42.399Z,34.20
2022-12-13T20:12:12.282Z,33.50
2022-12-13T20:14:42.136Z,31.52
2022-12-13T20:17:11.991Z,32.85
2022-12-13T20:19:42.016Z,30.30
2022-12-13T20:22:15.552Z,34.58
2022-12-13T20:24:45.376Z,32.53
2022-12-13T20:27:18.776Z,33.75
2022-12-13T20:29:50.377Z,29.35
2022-12-13T20:32:20.957Z,33.42
2022-12-13T20:34:54.802Z,32.83
2022-12-13T20:37:28.019Z,30.35
2022-12-13T20:39:58.005Z,34.05
2022-12-13T20:42:28.114Z,29.83
2022-12-13T20:44:58.174Z,31.83
2022-12-13T20:47:28.150Z,35.10
2022-12-13T20:49:57.975Z,32.15
2022-12-13T20:52:30.376Z,30.70
2022-12-13T20:55:00.206Z,31.08
2022-12-13T20:57:30.035Z,42.60
2022-12-13T20:59:59.870Z,38.78
2022-12-13T21:02:30.019Z,40.55
2022-12-13T21:04:59.912Z,33.42
2022-12-13T21:07:44.841Z,35.17
2022-12-13T21:10:18.340Z,33.95
2022-12-13T21:12:48.276Z,33.00
2022-12-13T21:15:18.394Z,36.05
2022-12-13T21:17:48.231Z,34.38
2022-12-13T21:20:18.374Z,32.60
2022-12-13T21:22:50.856Z,37.67
2022-12-13T21:25:20.674Z,34.47
2022-12-13T21:27:50.490Z,36.30
2022-12-13T21:30:20.519Z,41.00
2022-12-13T21:32:52.873Z,33.78
2022-12-13T21:35:22.907Z,37.22
2022-12-13T21:37:55.385Z,37.63
2022-12-13T21:40:29.327Z,41.80
2022-12-13T21:42:59.155Z,36.15
2022-12-13T21:45:29.024Z,40.03
2022-12-13T21:47:58.886Z,40.78
2022-12-13T21:50:30.133Z,40.90
2022-12-13T21:53:04.908Z,41.05
2022-12-13T21:55:39.429Z,46.05
2022-12-13T22:00:59.948Z,37.17
2022-12-13T22:03:29.902Z,34.70
2022-12-13T22:05:59.737Z,35.38
2022-12-13T22:08:32.186Z,31.48
2022-12-13T22:11:21.322Z,31.67
2022-12-13T22:13:51.605Z,30.00
2022-12-13T22:16:21.507Z,30.35
2022-12-13T22:18:51.350Z,33.35
2022-12-13T22:21:21.204Z,28.42
2022-12-13T22:23:55.859Z,36.47
2022-12-13T22:28:56.088Z,31.92
2022-12-13T22:31:29.656Z,30.88
2022-12-13T22:34:00.161Z,36.00
2022-12-13T22:36:29.987Z,35.28
2022-12-13T22:39:02.426Z,32.20
2022-12-13T22:41:32.301Z,34.40
2022-12-13T22:44:02.272Z,36.83
2022-12-13T22:46:32.113Z,50.88
2022-12-13T22:49:01.926Z,34.97
2022-12-13T22:51:31.761Z,37.45
2022-12-13T22:54:04.382Z,38.42
2022-12-13T22:56:34.703Z,31.02
2022-12-13T22:59:07.889Z,27.33
2022-12-13T23:01:42.422Z,32.38
2022-12-13T23:04:17.915Z,32.83
2022-12-13T23:06:47.780Z,35.03
2022-12-13T23:09:20.442Z,32.40
2022-12-13T23:12:02.822Z,33.60
2022-12-13T23:14:35.014Z,31.98
2022-12-13T23:17:06.348Z,35.38
2022-12-13T23:19:49.004Z,32.58
2022-12-13T23:22:21.652Z,28.77
2022-12-13T23:24:55.360Z,33.25
2022-12-13T23:27:26.254Z,32.30
2022-12-13T23:29:56.136Z,29.73
2022-12-13T23:32:26.050Z,28.85
2022-12-13T23:34:55.917Z,32.47
2022-12-13T23:37:25.765Z,34.40
2022-12-13T23:39:58.154Z,34.35
2022-12-13T23:42:31.391Z,30.27
2022-12-13T23:45:01.254Z,35.50
2022-12-13T23:47:31.089Z,37.42
2022-12-13T23:50:00.902Z,33.88
2022-12-13T23:52:30.738Z,33.38
2022-12-13T23:55:03.154Z,30.35
2022-12-13T23:57:32.972Z,36.22
